< Typhoon 201916 2019 Season Typhoon 201918 >
Typhoon 201917 (TAPAH)
General InformationTrack Information on Google MapsDetailed Wind InformationForecast History on Google MapsAccess Analytics MapList of All Images || NewsDisaster Info.WeblogTrackbackTyphoon FrontTwiphoonTyphoon Now!Typhoon ImaginationJMA Disaster Info. XMLResourceGoogle EarthGE AnimationAtom FeedGeoJSON
Detalied Best Track (Time Zone = UTC)
Year Month Day Hour Lat. Long. Pressure (hPa) Wind (kt) Class Image Chart
2019 9 17 00 20.0 128.7 1000 0 2 Image Chart
2019 9 17 06 20.8 128.7 998 0 2 Image Chart
2019 9 17 12 21.1 128.8 998 0 2 Image Chart
2019 9 17 18 21.4 128.9 998 0 2 Image Chart
2019 9 18 00 21.4 128.9 998 0 2 Image Chart
2019 9 18 06 21.9 129.0 998 0 2 Image Chart
2019 9 18 12 22.3 129.7 998 0 2 Image Chart
2019 9 18 18 22.7 129.4 998 0 2 Image Chart
2019 9 19 00 22.4 128.7 996 35 3 Image Chart
2019 9 19 06 22.4 128.6 994 35 3 Image Chart
2019 9 19 12 23.1 128.2 992 40 3 Image Chart
2019 9 19 18 22.8 127.4 990 40 3 Image Chart
2019 9 20 00 23.1 127.2 985 45 3 Image Chart
2019 9 20 06 23.1 127.2 980 50 4 Image Chart
2019 9 20 12 24.0 127.2 980 50 4 Image Chart
2019 9 20 15 24.5 126.7 975 60 4 Image Chart
2019 9 20 18 25.0 126.4 970 65 5 Image Chart
2019 9 20 21 25.5 126.1 970 65 5 Image Chart
2019 9 21 00 26.2 125.7 970 65 5 Image Chart
2019 9 21 03 26.7 125.6 970 65 5 Image Chart
2019 9 21 06 27.3 125.6 970 65 5 Image Chart
2019 9 21 09 27.9 125.6 970 65 5 Image Chart
2019 9 21 12 28.5 125.6 970 65 5 Image Chart
2019 9 21 15 29.0 125.8 970 65 5 Image Chart
2019 9 21 18 29.5 126.1 970 65 5 Image Chart
2019 9 21 21 30.2 126.5 970 65 5 Image Chart
2019 9 22 00 31.1 127.0 975 60 4 Image Chart
2019 9 22 03 31.9 127.4 975 60 4 Image Chart
2019 9 22 06 32.6 127.9 975 60 4 Image Chart
2019 9 22 09 33.2 128.5 975 60 4 Image Chart
2019 9 22 12 33.9 129.5 980 55 4 Image Chart
2019 9 22 15 34.5 130.4 980 55 4 Image Chart
2019 9 22 18 35.2 131.3 985 50 4 Image Chart
2019 9 22 21 36.3 132.7 990 45 3 Image Chart
2019 9 23 00 37.6 134.2 992 0 6 Image Chart
2019 9 23 06 39.6 137.5 992 0 6 Image Chart
2019 9 23 12 41.0 139.8 996 0 6 Image Chart
Japan Meteorological Agency Best Track Data | Correction Date : 2019-11-22
< Typhoon 201916 2019 Season Typhoon 201918 >

Help